CEJ6 weather

Elk Point Airport
Elk Point, Alberta, Canada

Public forecast

Using degrees Celsius for public forecast. Weather courtesy of forecast.io.

Closest aviation weather report (METAR) to Elk Point Airport

Closest report is CFB Cold Lake, 35.3 nm (65.4 km) NNE. Retrieved 2019/10/21 19:00 UTC (8 minutes ago):

CYOD 211900Z 12005KT 15SM FEW005 BKN085 BKN120 01/M00 A2997 RMK SC1AS6AC1 VIRGA SUN DIMLY VISBL SC TR SLP180

Closest aviation forecast (TAF) to Elk Point Airport

Closest forecast is CFB Cold Lake, 35.3 nm (65.4 km) NNE. Retrieved 2019/10/21 18:35 UTC (33 minutes ago):

TAF CYOD 211730Z 2118/2218 12008KT P6SM BKN120 FM212100 12008KT P6SM SCT030 BKN060 OVC120 FM220300 VRB03KT P6SM SCT020 TEMPO 2203/2218 2SM BR PROB30 2212/2217 1/2SM -FZDZ FZFG RMK NXT FCST BY 212100Z